createdAt,value
2019-03-16T00:01:57.435Z,65.51
2019-03-16T00:04:23.584Z,65.72
2019-03-16T00:06:52.060Z,66.27
2019-03-16T00:09:20.561Z,66.16
2019-03-16T00:11:49.058Z,66.04
2019-03-16T00:14:17.526Z,65.97
2019-03-16T00:16:46.007Z,65.70
2019-03-16T00:19:14.534Z,66.03
2019-03-16T00:21:43.121Z,66.05
2019-03-16T00:24:11.577Z,66.04
2019-03-16T00:26:40.035Z,65.82
2019-03-16T00:29:08.533Z,66.18
2019-03-16T00:31:36.986Z,66.49
2019-03-16T00:34:07.134Z,66.47
2019-03-16T00:36:35.608Z,66.52
2019-03-16T00:39:05.945Z,66.58
2019-03-16T00:41:34.418Z,66.71
2019-03-16T00:44:02.902Z,66.84
2019-03-16T00:46:31.452Z,66.78
2019-03-16T00:48:59.943Z,67.05
2019-03-16T00:51:28.404Z,66.98
2019-03-16T00:53:56.886Z,67.03
2019-03-16T00:56:25.364Z,67.34
2019-03-16T00:58:53.850Z,67.38
2019-03-16T01:01:22.318Z,67.30
2019-03-16T01:03:50.888Z,67.65
2019-03-16T01:06:19.348Z,67.54
2019-03-16T01:08:47.847Z,67.71
2019-03-16T01:11:16.310Z,68.30
2019-03-16T01:13:44.809Z,68.43
2019-03-16T01:16:13.289Z,68.39
2019-03-16T01:18:42.014Z,68.33
2019-03-16T01:21:10.491Z,68.64
2019-03-16T01:23:38.973Z,68.81
2019-03-16T01:26:07.550Z,68.75
2019-03-16T01:28:36.015Z,69.09
2019-03-16T01:31:04.518Z,68.92
2019-03-16T01:33:33.008Z,69.12
2019-03-16T01:36:01.526Z,69.55
2019-03-16T01:38:29.994Z,69.31
2019-03-16T01:40:58.501Z,69.45
2019-03-16T01:43:26.980Z,69.74
2019-03-16T01:45:55.504Z,69.67
2019-03-16T01:48:23.986Z,70.09
2019-03-16T01:50:52.505Z,70.37
2019-03-16T01:53:22.853Z,70.32
2019-03-16T01:55:51.354Z,70.35
2019-03-16T01:58:19.821Z,70.28
2019-03-16T02:00:48.335Z,70.12
2019-03-16T02:03:16.817Z,70.94
2019-03-16T02:05:45.326Z,70.31
2019-03-16T02:08:13.790Z,70.33
2019-03-16T02:10:42.288Z,70.42
2019-03-16T02:13:10.746Z,70.76
2019-03-16T02:15:39.328Z,70.72
2019-03-16T02:18:07.802Z,70.33
2019-03-16T02:20:36.281Z,70.51
2019-03-16T02:23:04.820Z,70.46
2019-03-16T02:25:33.343Z,70.47
2019-03-16T02:28:01.802Z,70.39
2019-03-16T02:30:30.304Z,70.68
2019-03-16T02:33:11.637Z,70.32
2019-03-16T02:35:29.006Z,70.27
2019-03-16T02:37:57.590Z,70.42
2019-03-16T02:40:26.055Z,70.68
2019-03-16T02:42:54.513Z,70.38
2019-03-16T02:45:23.076Z,70.46
2019-03-16T02:47:51.571Z,70.39
2019-03-16T02:50:20.032Z,70.80
2019-03-16T02:52:49.997Z,70.59
2019-03-16T02:55:18.869Z,70.57
2019-03-16T02:57:47.359Z,70.56
2019-03-16T03:00:16.029Z,70.73
2019-03-16T03:02:44.528Z,70.61
2019-03-16T03:05:13.150Z,70.89
2019-03-16T03:07:41.665Z,70.83
2019-03-16T03:10:12.513Z,71.35
2019-03-16T03:12:41.021Z,71.03
2019-03-16T03:15:10.228Z,71.02
2019-03-16T03:17:38.709Z,71.07
2019-03-16T03:20:09.435Z,71.54
2019-03-16T03:22:37.911Z,71.58
2019-03-16T03:25:06.772Z,71.79
2019-03-16T03:27:35.285Z,71.43
2019-03-16T03:30:05.241Z,71.78
2019-03-16T03:32:33.707Z,72.31
2019-03-16T03:35:02.166Z,71.74
2019-03-16T03:37:30.654Z,71.88
2019-03-16T03:39:59.113Z,71.79
2019-03-16T03:42:27.619Z,71.56
2019-03-16T03:44:56.521Z,72.11
2019-03-16T03:47:25.023Z,71.77
2019-03-16T03:49:53.469Z,72.16
2019-03-16T03:52:21.947Z,71.62
2019-03-16T03:54:50.491Z,71.70
2019-03-16T03:57:18.980Z,72.25
2019-03-16T03:59:47.685Z,72.73
2019-03-16T04:02:16.278Z,72.72
2019-03-16T04:04:44.760Z,72.30
2019-03-16T04:07:13.246Z,72.60
2019-03-16T04:09:41.722Z,73.23
2019-03-16T04:12:10.255Z,72.68
2019-03-16T04:14:38.681Z,73.27
2019-03-16T04:17:07.273Z,73.27
2019-03-16T04:19:35.753Z,72.95
2019-03-16T04:22:04.232Z,72.80
2019-03-16T04:24:32.715Z,73.14
2019-03-16T04:27:15.261Z,73.91
2019-03-16T04:29:31.556Z,73.14
2019-03-16T04:32:00.092Z,73.24
2019-03-16T04:34:29.902Z,73.57
2019-03-16T04:36:58.538Z,74.03
2019-03-16T04:39:27.041Z,73.60
2019-03-16T04:41:55.525Z,74.34
2019-03-16T04:44:24.015Z,73.60
2019-03-16T04:46:52.488Z,74.05
2019-03-16T04:49:20.994Z,73.44
2019-03-16T04:51:49.477Z,73.53
2019-03-16T04:54:17.993Z,74.41
2019-03-16T04:56:46.477Z,73.72
2019-03-16T04:59:14.946Z,74.43
2019-03-16T05:01:43.421Z,74.31
2019-03-16T05:04:11.912Z,74.36
2019-03-16T05:06:40.438Z,74.00
2019-03-16T05:09:08.905Z,74.02
2019-03-16T05:11:37.446Z,74.24
2019-03-16T05:14:05.951Z,74.11
2019-03-16T05:16:34.423Z,74.26
2019-03-16T05:19:02.938Z,74.19
2019-03-16T05:21:31.372Z,74.35
2019-03-16T05:24:02.770Z,74.63
2019-03-16T05:26:30.076Z,75.03
2019-03-16T05:28:58.616Z,74.61
2019-03-16T05:31:27.085Z,75.50
2019-03-16T05:33:55.583Z,74.33
2019-03-16T05:36:24.062Z,74.85
2019-03-16T05:38:52.561Z,74.61
2019-03-16T05:41:21.113Z,74.96
2019-03-16T05:43:49.611Z,75.43
2019-03-16T05:46:18.113Z,75.47
2019-03-16T05:48:46.603Z,75.34
2019-03-16T05:51:15.068Z,75.25
2019-03-16T05:53:43.574Z,75.22
2019-03-16T05:56:12.053Z,74.93
2019-03-16T05:58:40.546Z,74.82
2019-03-16T06:01:09.014Z,75.12
2019-03-16T06:03:37.521Z,75.28
2019-03-16T06:06:06.071Z,74.81
2019-03-16T06:08:34.564Z,75.15
2019-03-16T06:11:03.053Z,74.74
2019-03-16T06:13:31.552Z,74.52
2019-03-16T06:16:00.034Z,74.52
2019-03-16T06:18:28.537Z,74.34
2019-03-16T06:20:56.996Z,74.39
2019-03-16T06:23:25.468Z,74.32
2019-03-16T06:25:53.957Z,74.10
2019-03-16T06:28:22.500Z,74.00
2019-03-16T06:30:50.983Z,74.01
2019-03-16T06:33:19.482Z,73.87
2019-03-16T06:35:47.994Z,74.08
2019-03-16T06:38:16.473Z,73.90
2019-03-16T06:40:44.983Z,73.69
2019-03-16T06:43:13.471Z,73.51
2019-03-16T06:45:41.945Z,73.43
2019-03-16T06:48:10.431Z,73.05
2019-03-16T06:50:38.933Z,72.83
2019-03-16T06:53:07.391Z,72.82
2019-03-16T06:55:35.906Z,72.94
2019-03-16T06:58:04.452Z,72.73
2019-03-16T07:00:32.956Z,72.23
2019-03-16T07:03:01.436Z,72.26
2019-03-16T07:05:38.188Z,72.11
2019-03-16T07:08:00.245Z,72.33
2019-03-16T07:10:28.741Z,72.17
2019-03-16T07:12:57.204Z,72.47
2019-03-16T07:15:25.699Z,71.91
2019-03-16T07:17:54.183Z,72.08
2019-03-16T07:20:22.692Z,71.88
2019-03-16T07:22:51.163Z,71.44
2019-03-16T07:25:19.669Z,71.28
2019-03-16T07:27:48.154Z,70.85
2019-03-16T07:30:16.727Z,71.19
2019-03-16T07:32:45.212Z,70.43
2019-03-16T07:35:13.807Z,69.66
2019-03-16T07:37:42.373Z,70.59
2019-03-16T07:40:14.563Z,69.84
2019-03-16T07:42:43.035Z,70.30
2019-03-16T07:45:12.998Z,70.91
2019-03-16T07:47:41.538Z,69.54
2019-03-16T07:50:11.960Z,70.14
2019-03-16T07:52:40.542Z,67.86
2019-03-16T07:55:09.488Z,67.91
2019-03-16T07:57:40.601Z,68.27
2019-03-16T08:00:12.437Z,69.19
2019-03-16T08:02:40.912Z,68.11
2019-03-16T08:05:18.067Z,68.17
2019-03-16T08:07:39.909Z,68.17
2019-03-16T08:10:11.959Z,69.25
2019-03-16T08:12:40.504Z,68.29
2019-03-16T08:15:10.297Z,69.22
2019-03-16T08:17:38.956Z,68.82
2019-03-16T08:20:08.888Z,67.67
2019-03-16T08:22:37.368Z,65.46
2019-03-16T08:25:07.136Z,66.73
2019-03-16T08:27:35.703Z,65.33
2019-03-16T08:30:09.122Z,66.42
2019-03-16T08:32:37.703Z,66.46
2019-03-16T08:35:07.764Z,66.38
2019-03-16T08:37:36.228Z,65.98
2019-03-16T08:40:07.081Z,65.72
2019-03-16T08:42:35.556Z,66.73
2019-03-16T08:45:08.914Z,63.83
2019-03-16T08:47:37.383Z,66.06
2019-03-16T08:50:07.636Z,64.91
2019-03-16T08:52:36.129Z,66.15
2019-03-16T08:55:05.609Z,63.72
2019-03-16T08:57:34.029Z,64.15
2019-03-16T09:00:02.702Z,64.17
2019-03-16T09:02:31.169Z,65.37
2019-03-16T09:04:59.760Z,63.45
2019-03-16T09:07:28.248Z,64.48
2019-03-16T09:09:56.786Z,65.65
2019-03-16T09:12:25.268Z,64.75
2019-03-16T09:14:53.765Z,64.85
2019-03-16T09:17:22.248Z,63.55
2019-03-16T09:19:50.754Z,63.19
2019-03-16T09:22:19.341Z,63.51
2019-03-16T09:24:47.813Z,63.72
2019-03-16T09:27:16.333Z,64.42
2019-03-16T09:29:44.824Z,62.68
2019-03-16T09:32:13.343Z,64.21
2019-03-16T09:34:41.825Z,61.82
2019-03-16T09:37:10.319Z,61.29
2019-03-16T09:39:38.802Z,63.89
2019-03-16T09:42:07.302Z,63.68
2019-03-16T09:44:35.786Z,61.89
2019-03-16T09:47:04.454Z,62.38
2019-03-16T09:49:32.934Z,62.53
2019-03-16T09:52:01.455Z,61.25
2019-03-16T09:54:29.923Z,62.82
2019-03-16T09:57:01.660Z,61.73
2019-03-16T09:59:28.636Z,61.84
2019-03-16T10:01:57.146Z,62.11
2019-03-16T10:04:25.636Z,63.51
2019-03-16T10:06:54.113Z,61.48
2019-03-16T10:09:22.597Z,60.25
2019-03-16T10:11:51.100Z,58.77
2019-03-16T10:14:19.943Z,58.94
2019-03-16T10:16:48.470Z,59.94
2019-03-16T10:19:16.956Z,58.78
2019-03-16T10:21:45.449Z,61.30
2019-03-16T10:24:13.932Z,60.05
2019-03-16T10:26:42.447Z,57.27
2019-03-16T10:29:10.916Z,61.00
2019-03-16T10:31:39.408Z,59.00
2019-03-16T10:34:07.892Z,59.48
2019-03-16T10:36:36.388Z,59.67
2019-03-16T10:39:06.934Z,59.52
2019-03-16T10:41:35.457Z,57.90
2019-03-16T10:44:04.029Z,57.84
2019-03-16T10:46:32.517Z,57.28
2019-03-16T10:49:00.999Z,56.12
2019-03-16T10:51:29.479Z,57.87
2019-03-16T10:53:57.958Z,58.00
2019-03-16T10:56:26.471Z,57.38
2019-03-16T10:58:56.879Z,56.96
2019-03-16T11:01:25.144Z,57.12
2019-03-16T11:03:53.646Z,57.14
2019-03-16T11:06:22.114Z,57.92
2019-03-16T11:08:50.597Z,57.99
2019-03-16T11:11:19.082Z,58.10
2019-03-16T11:13:47.600Z,58.52
2019-03-16T11:16:16.144Z,58.51
2019-03-16T11:18:44.663Z,58.12
2019-03-16T11:21:13.133Z,58.49
2019-03-16T11:23:41.628Z,59.08
2019-03-16T11:26:10.119Z,58.62
2019-03-16T11:28:38.598Z,59.38
2019-03-16T11:31:07.077Z,59.09
2019-03-16T11:33:35.576Z,59.71
2019-03-16T11:36:04.313Z,59.94
2019-03-16T11:38:32.829Z,60.47
2019-03-16T11:41:01.302Z,60.01
2019-03-16T11:43:29.784Z,60.51
2019-03-16T11:45:58.269Z,60.83
2019-03-16T11:48:26.745Z,61.17
2019-03-16T11:50:55.227Z,61.81
2019-03-16T11:53:23.715Z,63.15
2019-03-16T11:55:54.582Z,64.25
2019-03-16T11:58:23.181Z,65.54
2019-03-16T12:00:51.652Z,65.29
2019-03-16T12:03:20.132Z,65.43
2019-03-16T12:05:48.604Z,65.36
2019-03-16T12:08:17.114Z,66.32
2019-03-16T12:10:45.573Z,68.20
2019-03-16T12:13:18.123Z,67.76
2019-03-16T12:15:44.331Z,67.47
2019-03-16T12:18:12.828Z,67.57
2019-03-16T12:20:41.392Z,68.63
2019-03-16T12:23:09.875Z,67.68
2019-03-16T12:25:38.376Z,68.16
2019-03-16T12:28:06.854Z,68.29
2019-03-16T12:30:35.378Z,70.64
2019-03-16T12:33:03.846Z,70.37
2019-03-16T12:35:32.351Z,72.40
2019-03-16T12:38:00.852Z,75.75
2019-03-16T12:40:29.313Z,75.40
2019-03-16T12:42:57.820Z,73.21
2019-03-16T12:45:26.307Z,75.49
2019-03-16T12:47:54.783Z,76.51
2019-03-16T12:50:23.286Z,74.52
2019-03-16T12:52:51.752Z,75.61
2019-03-16T12:55:20.304Z,78.18
2019-03-16T12:57:49.711Z,76.67
2019-03-16T13:00:19.439Z,80.05
2019-03-16T13:02:48.010Z,77.40
2019-03-16T13:05:16.525Z,78.40
2019-03-16T13:07:45.002Z,77.00
2019-03-16T13:10:20.204Z,77.48
2019-03-16T13:12:48.743Z,76.47
2019-03-16T13:15:19.023Z,78.08
2019-03-16T13:17:47.483Z,81.66
2019-03-16T13:20:17.015Z,80.61
2019-03-16T13:22:45.472Z,78.48
2019-03-16T13:25:14.308Z,80.54
2019-03-16T13:27:42.778Z,77.75
2019-03-16T13:30:15.585Z,80.52
2019-03-16T13:32:44.065Z,79.87
2019-03-16T13:35:12.913Z,80.87
2019-03-16T13:37:41.404Z,80.15
2019-03-16T13:40:14.246Z,81.31
2019-03-16T13:42:42.773Z,81.30
2019-03-16T13:45:11.633Z,80.98
2019-03-16T13:47:40.078Z,79.38
2019-03-16T13:50:11.479Z,80.37
2019-03-16T13:52:40.167Z,83.29
2019-03-16T13:55:09.419Z,80.23
2019-03-16T13:57:37.901Z,82.07
2019-03-16T14:00:12.245Z,81.04
2019-03-16T14:02:39.812Z,81.71
2019-03-16T14:05:08.358Z,81.03
2019-03-16T14:07:37.129Z,81.53
2019-03-16T14:10:08.663Z,83.15
2019-03-16T14:12:37.152Z,82.07
2019-03-16T14:15:07.081Z,82.53
2019-03-16T14:17:35.817Z,82.18
2019-03-16T14:20:05.557Z,82.73
2019-03-16T14:22:34.025Z,83.84
2019-03-16T14:25:02.521Z,83.47
2019-03-16T14:27:30.979Z,83.37
2019-03-16T14:29:59.434Z,82.70
2019-03-16T14:32:27.939Z,83.39
2019-03-16T14:34:56.396Z,84.79
2019-03-16T14:37:25.263Z,84.67
2019-03-16T14:39:54.030Z,84.94
2019-03-16T14:42:22.495Z,84.10
2019-03-16T14:44:50.962Z,86.31
2019-03-16T14:47:19.461Z,87.13
2019-03-16T14:49:47.921Z,87.06
2019-03-16T14:52:16.409Z,85.81
2019-03-16T14:54:44.863Z,87.64
2019-03-16T14:57:13.362Z,86.26
2019-03-16T14:59:41.880Z,88.12
2019-03-16T15:02:10.429Z,87.29
2019-03-16T15:04:38.942Z,87.47
2019-03-16T15:07:07.422Z,87.02
2019-03-16T15:09:35.908Z,89.82
2019-03-16T15:12:04.403Z,88.86
2019-03-16T15:14:32.881Z,89.54
2019-03-16T15:17:01.400Z,89.46
2019-03-16T15:19:29.874Z,88.88
2019-03-16T15:21:58.377Z,89.58
2019-03-16T15:24:26.866Z,89.16
2019-03-16T15:26:55.353Z,91.21
2019-03-16T15:29:23.835Z,90.77
2019-03-16T15:31:52.312Z,91.64
2019-03-16T15:34:20.774Z,91.92
2019-03-16T15:36:49.280Z,92.17
2019-03-16T15:39:17.947Z,92.53
2019-03-16T15:41:46.398Z,93.86
2019-03-16T15:44:14.904Z,93.49
2019-03-16T15:46:43.498Z,92.16
2019-03-16T15:49:12.006Z,93.54
2019-03-16T15:51:40.471Z,93.88
2019-03-16T15:54:08.935Z,93.01
2019-03-16T15:56:37.714Z,92.96
2019-03-16T15:59:06.186Z,93.86
2019-03-16T16:01:34.688Z,93.34
2019-03-16T16:04:03.262Z,92.92
2019-03-16T16:06:31.746Z,93.16
2019-03-16T16:09:00.229Z,92.66
2019-03-16T16:11:28.715Z,94.01
2019-03-16T16:13:57.193Z,94.24
2019-03-16T16:16:25.667Z,94.54
2019-03-16T16:18:54.200Z,93.34
2019-03-16T16:21:22.643Z,92.59
2019-03-16T16:23:51.129Z,92.43
2019-03-16T16:26:19.599Z,93.47
2019-03-16T16:28:48.162Z,95.01
2019-03-16T16:31:16.850Z,94.32
2019-03-16T16:33:45.495Z,95.35
2019-03-16T16:36:14.030Z,96.08
2019-03-16T16:38:42.512Z,94.86
2019-03-16T16:41:10.997Z,95.64
2019-03-16T16:43:39.488Z,95.29
2019-03-16T16:46:07.969Z,94.02
2019-03-16T16:48:36.471Z,94.40
2019-03-16T16:51:05.096Z,94.82
2019-03-16T16:53:33.664Z,94.62
2019-03-16T16:56:02.166Z,95.88
2019-03-16T16:58:30.671Z,95.78
2019-03-16T17:00:59.144Z,95.48
2019-03-16T17:03:27.647Z,95.68
2019-03-16T17:05:56.187Z,95.78
2019-03-16T17:08:24.689Z,95.81
2019-03-16T17:10:53.175Z,96.53
2019-03-16T17:13:21.665Z,97.52
2019-03-16T17:15:50.137Z,97.08
2019-03-16T17:18:18.664Z,97.74
2019-03-16T17:20:47.152Z,96.80
2019-03-16T17:23:15.600Z,97.41
2019-03-16T17:25:44.060Z,97.40
2019-03-16T17:28:12.570Z,97.78
2019-03-16T17:30:41.008Z,98.19
2019-03-16T17:33:09.507Z,98.24
2019-03-16T17:35:38.072Z,97.72
2019-03-16T17:38:06.554Z,97.18
2019-03-16T17:40:35.002Z,97.99
2019-03-16T17:43:03.515Z,97.87
2019-03-16T17:45:32.018Z,98.12
2019-03-16T17:48:00.495Z,98.09
2019-03-16T17:50:29.094Z,97.93
2019-03-16T17:52:57.596Z,98.66
2019-03-16T17:55:26.077Z,98.24
2019-03-16T17:57:54.602Z,98.59
2019-03-16T18:00:23.078Z,98.19
2019-03-16T18:02:52.696Z,97.93
2019-03-16T18:05:21.383Z,97.94
2019-03-16T18:07:49.915Z,98.75
2019-03-16T18:10:18.443Z,98.77
2019-03-16T18:12:46.931Z,98.81
2019-03-16T18:15:20.110Z,99.08
2019-03-16T18:17:48.682Z,98.63
2019-03-16T18:20:18.344Z,98.14
2019-03-16T18:22:47.668Z,98.68
2019-03-16T18:25:16.770Z,98.83
2019-03-16T18:27:45.262Z,99.00
2019-03-16T18:30:20.944Z,99.31
2019-03-16T18:32:49.423Z,98.79
2019-03-16T18:35:17.933Z,98.78
2019-03-16T18:37:46.413Z,98.22
2019-03-16T18:40:16.060Z,99.47
2019-03-16T18:42:44.531Z,98.92
2019-03-16T18:45:36.481Z,99.02
2019-03-16T18:48:04.988Z,99.33
2019-03-16T18:50:33.507Z,100.00
2019-03-16T18:53:01.990Z,100.00
2019-03-16T18:55:30.476Z,99.60
2019-03-16T18:57:58.989Z,100.00
2019-03-16T19:00:27.482Z,100.00
2019-03-16T19:02:56.233Z,99.83
2019-03-16T19:05:24.743Z,100.00
2019-03-16T19:07:53.214Z,99.92
2019-03-16T19:10:21.713Z,100.00
2019-03-16T19:12:50.188Z,99.55
2019-03-16T19:15:19.521Z,99.82
2019-03-16T19:17:58.255Z,100.00
2019-03-16T19:20:18.652Z,100.00
2019-03-16T19:22:47.269Z,100.00
2019-03-16T19:25:19.027Z,99.94
2019-03-16T19:27:48.784Z,100.00
2019-03-16T19:30:18.124Z,99.98
2019-03-16T19:32:46.838Z,100.00
2019-03-16T19:35:15.614Z,99.81
2019-03-16T19:37:44.212Z,100.00
2019-03-16T19:40:14.525Z,99.75
2019-03-16T19:42:43.015Z,99.86
2019-03-16T19:45:12.441Z,99.46
2019-03-16T19:47:40.940Z,99.21
2019-03-16T19:50:14.386Z,99.17
2019-03-16T19:52:43.130Z,100.00
2019-03-16T19:55:12.810Z,99.54
2019-03-16T19:57:41.658Z,100.00
2019-03-16T20:00:13.252Z,99.72
2019-03-16T20:02:48.551Z,99.32
2019-03-16T20:05:13.475Z,99.97
2019-03-16T20:07:41.948Z,98.50
2019-03-16T20:10:18.640Z,99.10
2019-03-16T20:12:47.097Z,99.46
2019-03-16T20:15:16.558Z,99.84
2019-03-16T20:17:45.183Z,100.00
2019-03-16T20:20:15.006Z,100.00
2019-03-16T20:22:43.457Z,99.85
2019-03-16T20:25:12.279Z,98.99
2019-03-16T20:27:40.742Z,99.04
2019-03-16T20:30:25.791Z,99.30
2019-03-16T20:32:50.361Z,98.44
2019-03-16T20:35:17.570Z,99.23
2019-03-16T20:37:46.242Z,99.56
2019-03-16T20:40:16.778Z,99.19
2019-03-16T20:42:45.363Z,99.43
2019-03-16T20:45:14.207Z,98.96
2019-03-16T20:47:42.899Z,99.50
2019-03-16T20:50:16.129Z,99.96
2019-03-16T20:52:44.605Z,99.94
2019-03-16T20:55:13.302Z,100.00
2019-03-16T20:57:41.784Z,100.00
2019-03-16T21:00:12.493Z,100.00
2019-03-16T21:02:40.972Z,100.00
2019-03-16T21:05:10.733Z,100.00
2019-03-16T21:07:39.279Z,100.00
2019-03-16T21:10:09.793Z,100.00
2019-03-16T21:12:38.287Z,100.00
2019-03-16T21:15:11.847Z,100.00
2019-03-16T21:17:40.314Z,100.00
2019-03-16T21:20:11.878Z,99.96
2019-03-16T21:22:40.378Z,99.84
2019-03-16T21:25:11.389Z,100.00
2019-03-16T21:27:39.904Z,99.77
2019-03-16T21:30:20.221Z,99.69
2019-03-16T21:32:48.702Z,99.82
2019-03-16T21:35:17.326Z,99.81
2019-03-16T21:37:45.828Z,99.66
2019-03-16T21:40:18.445Z,99.45
2019-03-16T21:42:46.928Z,99.51
2019-03-16T21:45:15.558Z,99.19
2019-03-16T21:47:44.075Z,99.40
2019-03-16T21:50:16.157Z,99.32
2019-03-16T21:52:45.189Z,99.30
2019-03-16T21:55:14.866Z,98.72
2019-03-16T21:57:43.912Z,98.76
2019-03-16T22:00:14.618Z,98.64
2019-03-16T22:02:43.230Z,99.27
2019-03-16T22:05:12.360Z,98.85
2019-03-16T22:07:40.920Z,98.66
2019-03-16T22:10:11.330Z,98.66
2019-03-16T22:12:39.896Z,98.50
2019-03-16T22:15:11.435Z,97.96
2019-03-16T22:17:39.857Z,98.47
2019-03-16T22:20:11.713Z,98.08
2019-03-16T22:22:40.233Z,98.12
2019-03-16T22:25:10.039Z,97.96
2019-03-16T22:27:38.533Z,97.73
2019-03-16T22:30:10.051Z,97.53
2019-03-16T22:32:38.536Z,96.73
2019-03-16T22:35:09.125Z,96.87
2019-03-16T22:37:38.003Z,96.43
2019-03-16T22:40:09.399Z,96.64
2019-03-16T22:42:37.924Z,96.05
2019-03-16T22:45:11.477Z,96.01
2019-03-16T22:47:40.001Z,96.07
2019-03-16T22:50:13.978Z,96.15
2019-03-16T22:52:42.476Z,95.53
2019-03-16T22:55:11.127Z,95.85
2019-03-16T22:57:39.621Z,95.24
2019-03-16T23:00:13.669Z,95.05
2019-03-16T23:02:42.508Z,94.86
2019-03-16T23:05:11.699Z,94.80
2019-03-16T23:07:40.186Z,94.65
2019-03-16T23:10:10.664Z,94.15
2019-03-16T23:12:39.157Z,94.30
2019-03-16T23:15:11.623Z,93.93
2019-03-16T23:17:40.117Z,93.93
2019-03-16T23:20:09.719Z,94.32
2019-03-16T23:22:38.222Z,93.89
2019-03-16T23:25:10.653Z,93.78
2019-03-16T23:27:39.126Z,93.69
2019-03-16T23:30:09.419Z,93.50
2019-03-16T23:32:38.614Z,93.39
2019-03-16T23:35:08.619Z,93.41
2019-03-16T23:37:37.093Z,93.08
2019-03-16T23:40:08.176Z,92.90
2019-03-16T23:42:36.693Z,92.92
2019-03-16T23:45:07.883Z,92.53
2019-03-16T23:47:36.368Z,92.13
2019-03-16T23:50:07.582Z,92.27
2019-03-16T23:52:37.157Z,91.94
2019-03-16T23:55:07.698Z,91.50
2019-03-16T23:57:36.199Z,91.48
